sensor_id;sensor_type;location;lat;lon;timestamp;pressure;altitude;pressure_sealevel;temperature;humidity
61524;BME280;47393;38.758;-9.164;2022-07-03T00:00:47;100506.16;;;18.55;70.41
61524;BME280;47393;38.758;-9.164;2022-07-03T00:02:48;100511.78;;;18.68;70.43
61524;BME280;47393;38.758;-9.164;2022-07-03T00:04:49;100507.81;;;18.64;70.38
61524;BME280;47393;38.758;-9.164;2022-07-03T00:06:50;100505.19;;;18.56;70.54
61524;BME280;47393;38.758;-9.164;2022-07-03T00:08:57;100511.22;;;18.50;71.05
61524;BME280;47393;38.758;-9.164;2022-07-03T00:11:01;100479.34;;;18.25;71.12
61524;BME280;47393;38.758;-9.164;2022-07-03T00:13:02;100467.03;;;18.24;71.01
61524;BME280;47393;38.758;-9.164;2022-07-03T00:15:46;100507.13;;;18.62;70.19
61524;BME280;47393;38.758;-9.164;2022-07-03T00:17:51;100447.84;;;18.37;69.62
61524;BME280;47393;38.758;-9.164;2022-07-03T00:19:58;100508.22;;;18.76;69.38
61524;BME280;47393;38.758;-9.164;2022-07-03T00:22:19;100498.56;;;18.75;69.65
61524;BME280;47393;38.758;-9.164;2022-07-03T00:24:40;100491.31;;;18.61;69.95
61524;BME280;47393;38.758;-9.164;2022-07-03T00:26:48;100444.03;;;18.40;69.62
61524;BME280;47393;38.758;-9.164;2022-07-03T00:28:51;100485.50;;;18.65;69.27
61524;BME280;47393;38.758;-9.164;2022-07-03T00:31:05;100486.16;;;18.67;69.07
61524;BME280;47393;38.758;-9.164;2022-07-03T00:33:21;100462.78;;;18.46;69.49
61524;BME280;47393;38.758;-9.164;2022-07-03T00:35:23;100485.34;;;18.59;70.02
61524;BME280;47393;38.758;-9.164;2022-07-03T00:37:24;100402.56;;;18.06;70.23
61524;BME280;47393;38.758;-9.164;2022-07-03T00:39:26;100431.47;;;18.17;70.14
61524;BME280;47393;38.758;-9.164;2022-07-03T00:41:31;100447.06;;;18.28;70.21
61524;BME280;47393;38.758;-9.164;2022-07-03T00:43:36;100498.84;;;18.57;70.25
61524;BME280;47393;38.758;-9.164;2022-07-03T00:45:37;100493.69;;;18.56;70.41
61524;BME280;47393;38.758;-9.164;2022-07-03T00:47:42;100456.41;;;18.24;70.24
61524;BME280;47393;38.758;-9.164;2022-07-03T00:49:45;100478.31;;;18.35;70.69
61524;BME280;47393;38.758;-9.164;2022-07-03T00:51:51;100458.09;;;18.17;70.72
61524;BME280;47393;38.758;-9.164;2022-07-03T00:53:57;100481.97;;;18.33;71.22
61524;BME280;47393;38.758;-9.164;2022-07-03T00:55:59;100462.72;;;18.23;70.92
61524;BME280;47393;38.758;-9.164;2022-07-03T00:58:01;100462.84;;;18.30;70.80
61524;BME280;47393;38.758;-9.164;2022-07-03T01:00:03;100478.50;;;18.25;71.03
61524;BME280;47393;38.758;-9.164;2022-07-03T01:02:05;100460.44;;;18.04;71.87
61524;BME280;47393;38.758;-9.164;2022-07-03T01:06:16;100471.31;;;17.94;72.82
61524;BME280;47393;38.758;-9.164;2022-07-03T01:12:55;100421.00;;;17.26;74.29
61524;BME280;47393;38.758;-9.164;2022-07-03T01:15:11;100482.63;;;17.63;74.53
61524;BME280;47393;38.758;-9.164;2022-07-03T01:17:38;100463.03;;;17.64;74.64
61524;BME280;47393;38.758;-9.164;2022-07-03T01:19:48;100423.47;;;17.36;74.28
61524;BME280;47393;38.758;-9.164;2022-07-03T01:21:55;100477.47;;;17.61;74.75
61524;BME280;47393;38.758;-9.164;2022-07-03T01:24:28;100472.34;;;17.52;75.22
61524;BME280;47393;38.758;-9.164;2022-07-03T01:26:42;100471.84;;;17.48;75.25
61524;BME280;47393;38.758;-9.164;2022-07-03T01:28:46;100465.84;;;17.54;75.64
61524;BME280;47393;38.758;-9.164;2022-07-03T01:30:57;100444.09;;;17.26;75.57
61524;BME280;47393;38.758;-9.164;2022-07-03T01:33:17;100477.47;;;17.45;77.68
61524;BME280;47393;38.758;-9.164;2022-07-03T01:35:41;100424.66;;;17.09;78.45
61524;BME280;47393;38.758;-9.164;2022-07-03T01:38:29;100449.41;;;17.34;80.22
61524;BME280;47393;38.758;-9.164;2022-07-03T01:40:47;100466.88;;;17.37;81.29
61524;BME280;47393;38.758;-9.164;2022-07-03T01:43:05;100372.47;;;16.83;82.12
61524;BME280;47393;38.758;-9.164;2022-07-03T01:45:26;100458.38;;;17.41;82.79
61524;BME280;47393;38.758;-9.164;2022-07-03T01:47:28;100461.56;;;17.37;83.04
61524;BME280;47393;38.758;-9.164;2022-07-03T01:49:31;100438.63;;;17.11;83.19
61524;BME280;47393;38.758;-9.164;2022-07-03T01:51:39;100451.25;;;17.17;83.93
61524;BME280;47393;38.758;-9.164;2022-07-03T01:53:44;100419.69;;;16.89;84.85
61524;BME280;47393;38.758;-9.164;2022-07-03T01:55:46;100404.50;;;16.73;84.66
61524;BME280;47393;38.758;-9.164;2022-07-03T01:57:50;100415.84;;;16.84;84.31
61524;BME280;47393;38.758;-9.164;2022-07-03T01:59:59;100463.53;;;17.02;84.33
61524;BME280;47393;38.758;-9.164;2022-07-03T02:02:32;100422.31;;;16.81;84.04
61524;BME280;47393;38.758;-9.164;2022-07-03T02:04:54;100461.22;;;17.07;83.71
61524;BME280;47393;38.758;-9.164;2022-07-03T02:07:07;100380.75;;;16.55;83.83
61524;BME280;47393;38.758;-9.164;2022-07-03T02:09:11;100451.03;;;16.86;84.19
61524;BME280;47393;38.758;-9.164;2022-07-03T02:11:21;100425.41;;;16.60;84.48
61524;BME280;47393;38.758;-9.164;2022-07-03T02:13:31;100463.13;;;16.80;85.49
61524;BME280;47393;38.758;-9.164;2022-07-03T02:15:42;100433.34;;;16.52;85.84
61524;BME280;47393;38.758;-9.164;2022-07-03T02:17:46;100421.09;;;16.51;85.61
61524;BME280;47393;38.758;-9.164;2022-07-03T02:21:51;100408.28;;;16.46;85.15
61524;BME280;47393;38.758;-9.164;2022-07-03T02:24:20;100454.88;;;16.91;84.49
61524;BME280;47393;38.758;-9.164;2022-07-03T02:26:29;100381.59;;;16.56;83.80
61524;BME280;47393;38.758;-9.164;2022-07-03T02:31:05;100441.13;;;17.21;82.69
61524;BME280;47393;38.758;-9.164;2022-07-03T02:33:25;100448.09;;;17.30;82.64
61524;BME280;47393;38.758;-9.164;2022-07-03T02:35:28;100427.97;;;17.19;82.92
61524;BME280;47393;38.758;-9.164;2022-07-03T02:37:33;100439.94;;;17.32;82.99
61524;BME280;47393;38.758;-9.164;2022-07-03T02:39:51;100414.03;;;17.25;82.45
61524;BME280;47393;38.758;-9.164;2022-07-03T02:41:58;100452.91;;;17.51;82.70
61524;BME280;47393;38.758;-9.164;2022-07-03T02:47:00;100447.06;;;17.56;82.96
61524;BME280;47393;38.758;-9.164;2022-07-03T02:51:37;100444.94;;;17.43;83.56
61524;BME280;47393;38.758;-9.164;2022-07-03T02:53:44;100426.66;;;17.32;83.68
61524;BME280;47393;38.758;-9.164;2022-07-03T02:55:47;100433.47;;;17.34;83.96
61524;BME280;47393;38.758;-9.164;2022-07-03T02:57:59;100432.13;;;17.30;83.98
61524;BME280;47393;38.758;-9.164;2022-07-03T03:00:12;100444.78;;;17.28;84.31
61524;BME280;47393;38.758;-9.164;2022-07-03T03:02:31;100443.28;;;17.25;85.14
61524;BME280;47393;38.758;-9.164;2022-07-03T03:04:40;100413.03;;;17.10;85.10
61524;BME280;47393;38.758;-9.164;2022-07-03T03:07:08;100387.13;;;16.95;85.29
61524;BME280;47393;38.758;-9.164;2022-07-03T03:09:11;100400.59;;;16.94;85.17
61524;BME280;47393;38.758;-9.164;2022-07-03T03:13:45;100428.00;;;17.11;85.82
61524;BME280;47393;38.758;-9.164;2022-07-03T03:16:09;100435.97;;;17.03;86.12
61524;BME280;47393;38.758;-9.164;2022-07-03T03:18:12;100428.31;;;16.91;87.39
61524;BME280;47393;38.758;-9.164;2022-07-03T03:20:17;100417.78;;;16.73;87.82
61524;BME280;47393;38.758;-9.164;2022-07-03T03:22:27;100444.88;;;16.85;88.67
61524;BME280;47393;38.758;-9.164;2022-07-03T03:24:30;100439.91;;;16.82;89.02
61524;BME280;47393;38.758;-9.164;2022-07-03T03:26:32;100433.09;;;16.80;89.52
61524;BME280;47393;38.758;-9.164;2022-07-03T03:28:33;100409.66;;;16.58;89.71
61524;BME280;47393;38.758;-9.164;2022-07-03T03:30:36;100444.69;;;16.78;90.52
61524;BME280;47393;38.758;-9.164;2022-07-03T03:32:38;100397.53;;;16.48;90.92
61524;BME280;47393;38.758;-9.164;2022-07-03T03:34:41;100436.72;;;16.78;91.07
61524;BME280;47393;38.758;-9.164;2022-07-03T03:36:42;100403.50;;;16.66;91.25
61524;BME280;47393;38.758;-9.164;2022-07-03T03:38:43;100428.25;;;16.83;90.81
61524;BME280;47393;38.758;-9.164;2022-07-03T03:40:45;100436.63;;;16.97;90.39
61524;BME280;47393;38.758;-9.164;2022-07-03T03:42:46;100385.75;;;16.67;90.45
61524;BME280;47393;38.758;-9.164;2022-07-03T03:44:47;100432.63;;;16.92;90.28
61524;BME280;47393;38.758;-9.164;2022-07-03T03:46:50;100441.44;;;17.01;90.48
61524;BME280;47393;38.758;-9.164;2022-07-03T03:48:54;100412.00;;;16.86;90.21
61524;BME280;47393;38.758;-9.164;2022-07-03T03:50:59;100435.94;;;16.94;90.36
61524;BME280;47393;38.758;-9.164;2022-07-03T03:53:00;100440.13;;;17.05;89.73
61524;BME280;47393;38.758;-9.164;2022-07-03T03:55:02;100445.09;;;17.08;89.53
61524;BME280;47393;38.758;-9.164;2022-07-03T03:57:19;100437.13;;;17.08;89.27
61524;BME280;47393;38.758;-9.164;2022-07-03T03:59:24;100444.25;;;17.16;89.38
61524;BME280;47393;38.758;-9.164;2022-07-03T04:01:24;100431.97;;;16.99;89.72
61524;BME280;47393;38.758;-9.164;2022-07-03T04:03:26;100445.25;;;16.99;89.67
61524;BME280;47393;38.758;-9.164;2022-07-03T04:05:27;100462.53;;;17.03;89.74
61524;BME280;47393;38.758;-9.164;2022-07-03T04:07:28;100462.53;;;17.03;89.64
61524;BME280;47393;38.758;-9.164;2022-07-03T04:09:29;100458.88;;;17.04;89.18
61524;BME280;47393;38.758;-9.164;2022-07-03T04:11:29;100448.91;;;16.89;89.56
61524;BME280;47393;38.758;-9.164;2022-07-03T04:13:30;100386.75;;;16.49;89.63
61524;BME280;47393;38.758;-9.164;2022-07-03T04:15:31;100428.88;;;16.60;89.95
61524;BME280;47393;38.758;-9.164;2022-07-03T04:17:38;100458.81;;;16.71;90.12
61524;BME280;47393;38.758;-9.164;2022-07-03T04:19:39;100451.66;;;16.71;90.58
61524;BME280;47393;38.758;-9.164;2022-07-03T04:21:40;100476.41;;;16.80;90.73
61524;BME280;47393;38.758;-9.164;2022-07-03T04:23:41;100474.41;;;16.74;91.01
61524;BME280;47393;38.758;-9.164;2022-07-03T04:25:42;100432.53;;;16.51;92.16
61524;BME280;47393;38.758;-9.164;2022-07-03T04:27:43;100460.91;;;16.59;92.58
61524;BME280;47393;38.758;-9.164;2022-07-03T04:29:44;100450.94;;;16.53;92.97
61524;BME280;47393;38.758;-9.164;2022-07-03T04:31:45;100462.06;;;16.48;93.58
61524;BME280;47393;38.758;-9.164;2022-07-03T04:33:46;100416.47;;;16.10;94.03
61524;BME280;47393;38.758;-9.164;2022-07-03T04:35:47;100469.00;;;16.41;94.82
61524;BME280;47393;38.758;-9.164;2022-07-03T04:37:48;100437.06;;;16.24;94.88
61524;BME280;47393;38.758;-9.164;2022-07-03T04:39:49;100471.31;;;16.36;96.34
61524;BME280;47393;38.758;-9.164;2022-07-03T04:41:50;100486.59;;;16.42;95.70
61524;BME280;47393;38.758;-9.164;2022-07-03T04:43:50;100455.66;;;16.16;95.98
61524;BME280;47393;38.758;-9.164;2022-07-03T04:45:51;100450.25;;;16.00;96.16
61524;BME280;47393;38.758;-9.164;2022-07-03T04:47:52;100492.78;;;16.16;96.68
61524;BME280;47393;38.758;-9.164;2022-07-03T04:49:53;100429.97;;;15.64;97.68
61524;BME280;47393;38.758;-9.164;2022-07-03T04:51:54;100471.69;;;15.80;98.30
61524;BME280;47393;38.758;-9.164;2022-07-03T04:54:04;100460.41;;;15.60;98.61
61524;BME280;47393;38.758;-9.164;2022-07-03T04:56:05;100499.94;;;15.89;98.82
61524;BME280;47393;38.758;-9.164;2022-07-03T04:58:06;100504.28;;;15.99;98.96
61524;BME280;47393;38.758;-9.164;2022-07-03T05:00:16;100516.72;;;15.98;99.55
61524;BME280;47393;38.758;-9.164;2022-07-03T05:02:25;100477.59;;;15.74;100.00
61524;BME280;47393;38.758;-9.164;2022-07-03T05:04:32;100503.50;;;15.80;100.00
61524;BME280;47393;38.758;-9.164;2022-07-03T05:06:34;100486.78;;;15.80;100.00
61524;BME280;47393;38.758;-9.164;2022-07-03T05:08:35;100464.97;;;15.68;100.00
61524;BME280;47393;38.758;-9.164;2022-07-03T05:10:36;100401.28;;;15.33;100.00
61524;BME280;47393;38.758;-9.164;2022-07-03T05:12:38;100496.31;;;15.99;100.00
61524;BME280;47393;38.758;-9.164;2022-07-03T05:14:39;100492.31;;;15.95;100.00
61524;BME280;47393;38.758;-9.164;2022-07-03T05:16:40;100464.72;;;15.79;100.00
61524;BME280;47393;38.758;-9.164;2022-07-03T05:18:41;100475.75;;;15.93;100.00
61524;BME280;47393;38.758;-9.164;2022-07-03T05:20:42;100475.09;;;15.99;100.00
61524;BME280;47393;38.758;-9.164;2022-07-03T05:22:43;100504.94;;;16.27;100.00
61524;BME280;47393;38.758;-9.164;2022-07-03T05:24:44;100494.09;;;16.47;99.86
61524;BME280;47393;38.758;-9.164;2022-07-03T05:26:44;100475.16;;;16.50;98.53
61524;BME280;47393;38.758;-9.164;2022-07-03T05:28:45;100496.94;;;16.61;98.29
61524;BME280;47393;38.758;-9.164;2022-07-03T05:30:49;100459.41;;;16.48;98.32
61524;BME280;47393;38.758;-9.164;2022-07-03T05:33:02;100491.69;;;16.78;97.59
61524;BME280;47393;38.758;-9.164;2022-07-03T05:35:03;100466.06;;;16.60;97.23
61524;BME280;47393;38.758;-9.164;2022-07-03T05:37:05;100485.38;;;16.71;96.78
61524;BME280;47393;38.758;-9.164;2022-07-03T05:39:05;100513.50;;;16.90;96.69
61524;BME280;47393;38.758;-9.164;2022-07-03T05:41:24;100498.41;;;16.99;95.68
61524;BME280;47393;38.758;-9.164;2022-07-03T05:43:25;100437.56;;;16.71;95.02
61524;BME280;47393;38.758;-9.164;2022-07-03T05:45:29;100507.41;;;17.47;93.31
61524;BME280;47393;38.758;-9.164;2022-07-03T05:47:40;100513.69;;;17.87;90.68
61524;BME280;47393;38.758;-9.164;2022-07-03T05:49:50;100542.63;;;18.55;87.16
61524;BME280;47393;38.758;-9.164;2022-07-03T05:51:51;100528.31;;;18.95;84.26
61524;BME280;47393;38.758;-9.164;2022-07-03T05:53:52;100522.41;;;19.31;81.29
61524;BME280;47393;38.758;-9.164;2022-07-03T05:55:53;100544.66;;;19.85;78.68
61524;BME280;47393;38.758;-9.164;2022-07-03T05:57:54;100516.03;;;20.09;76.95
61524;BME280;47393;38.758;-9.164;2022-07-03T05:59:55;100557.59;;;20.71;74.43
61524;BME280;47393;38.758;-9.164;2022-07-03T06:01:55;100549.38;;;20.72;73.40
61524;BME280;47393;38.758;-9.164;2022-07-03T06:03:56;100567.63;;;20.54;74.94
61524;BME280;47393;38.758;-9.164;2022-07-03T06:05:59;100565.16;;;20.37;74.84
61524;BME280;47393;38.758;-9.164;2022-07-03T06:08:00;100558.59;;;20.55;74.49
61524;BME280;47393;38.758;-9.164;2022-07-03T06:10:07;100558.34;;;21.01;72.68
61524;BME280;47393;38.758;-9.164;2022-07-03T06:12:08;100557.06;;;22.12;68.64
61524;BME280;47393;38.758;-9.164;2022-07-03T06:14:09;100564.38;;;23.15;64.21
61524;BME280;47393;38.758;-9.164;2022-07-03T06:16:10;100561.78;;;23.69;61.58
61524;BME280;47393;38.758;-9.164;2022-07-03T06:18:11;100535.28;;;24.12;59.36
61524;BME280;47393;38.758;-9.164;2022-07-03T06:20:12;100567.00;;;24.56;58.42
61524;BME280;47393;38.758;-9.164;2022-07-03T06:22:13;100562.97;;;24.26;58.35
61524;BME280;47393;38.758;-9.164;2022-07-03T06:24:14;100566.19;;;24.62;57.86
61524;BME280;47393;38.758;-9.164;2022-07-03T06:26:18;100572.28;;;25.21;55.99
61524;BME280;47393;38.758;-9.164;2022-07-03T06:28:19;100552.81;;;25.58;54.36
61524;BME280;47393;38.758;-9.164;2022-07-03T06:30:20;100556.44;;;24.67;56.59
61524;BME280;47393;38.758;-9.164;2022-07-03T06:32:21;100556.41;;;24.74;56.71
61524;BME280;47393;38.758;-9.164;2022-07-03T06:34:23;100556.53;;;24.34;58.58
61524;BME280;47393;38.758;-9.164;2022-07-03T06:36:30;100524.03;;;24.49;57.33
61524;BME280;47393;38.758;-9.164;2022-07-03T06:38:30;100557.84;;;24.77;56.93
61524;BME280;47393;38.758;-9.164;2022-07-03T06:40:32;100525.84;;;23.43;60.48
61524;BME280;47393;38.758;-9.164;2022-07-03T06:42:35;100556.81;;;23.99;59.40
61524;BME280;47393;38.758;-9.164;2022-07-03T06:44:43;100557.50;;;25.05;56.50
61524;BME280;47393;38.758;-9.164;2022-07-03T06:46:44;100482.41;;;26.16;52.48
61524;BME280;47393;38.758;-9.164;2022-07-03T06:48:45;100547.63;;;27.77;48.64
61524;BME280;47393;38.758;-9.164;2022-07-03T06:50:47;100532.97;;;27.31;48.67
61524;BME280;47393;38.758;-9.164;2022-07-03T06:52:51;100556.28;;;27.43;49.21
61524;BME280;47393;38.758;-9.164;2022-07-03T06:54:52;100546.13;;;28.45;46.96
61524;BME280;47393;38.758;-9.164;2022-07-03T06:56:56;100538.00;;;28.05;46.92
61524;BME280;47393;38.758;-9.164;2022-07-03T06:58:59;100551.13;;;28.25;46.51
61524;BME280;47393;38.758;-9.164;2022-07-03T07:01:00;100504.16;;;27.43;47.69
61524;BME280;47393;38.758;-9.164;2022-07-03T07:03:01;100554.78;;;27.71;47.48
61524;BME280;47393;38.758;-9.164;2022-07-03T07:05:05;100571.31;;;27.21;48.96
61524;BME280;47393;38.758;-9.164;2022-07-03T07:07:06;100563.72;;;27.60;48.38
61524;BME280;47393;38.758;-9.164;2022-07-03T07:09:07;100540.69;;;27.15;49.13
61524;BME280;47393;38.758;-9.164;2022-07-03T07:11:11;100565.00;;;27.81;48.28
61524;BME280;47393;38.758;-9.164;2022-07-03T07:13:13;100559.56;;;29.10;45.29
61524;BME280;47393;38.758;-9.164;2022-07-03T07:15:14;100528.28;;;29.48;43.65
61524;BME280;47393;38.758;-9.164;2022-07-03T07:17:15;100541.50;;;29.61;42.85
61524;BME280;47393;38.758;-9.164;2022-07-03T07:19:20;100545.44;;;29.71;42.81
61524;BME280;47393;38.758;-9.164;2022-07-03T07:21:21;100573.94;;;29.56;43.32
61524;BME280;47393;38.758;-9.164;2022-07-03T07:23:22;100575.16;;;29.48;42.97
61524;BME280;47393;38.758;-9.164;2022-07-03T07:25:23;100569.31;;;28.94;44.87
61524;BME280;47393;38.758;-9.164;2022-07-03T07:27:24;100576.06;;;28.15;45.97
61524;BME280;47393;38.758;-9.164;2022-07-03T07:29:24;100565.16;;;28.74;44.22
61524;BME280;47393;38.758;-9.164;2022-07-03T07:31:25;100583.63;;;29.69;42.46
61524;BME280;47393;38.758;-9.164;2022-07-03T07:33:26;100586.69;;;30.73;40.31
61524;BME280;47393;38.758;-9.164;2022-07-03T07:35:27;100585.25;;;32.70;36.83
61524;BME280;47393;38.758;-9.164;2022-07-03T07:37:28;100571.22;;;33.30;34.96
61524;BME280;47393;38.758;-9.164;2022-07-03T07:39:29;100581.53;;;33.38;35.11
61524;BME280;47393;38.758;-9.164;2022-07-03T07:41:29;100582.38;;;33.49;34.47
61524;BME280;47393;38.758;-9.164;2022-07-03T07:43:30;100577.44;;;33.72;34.36
61524;BME280;47393;38.758;-9.164;2022-07-03T07:45:31;100577.34;;;34.89;32.15
61524;BME280;47393;38.758;-9.164;2022-07-03T07:47:32;100596.63;;;35.08;31.97
61524;BME280;47393;38.758;-9.164;2022-07-03T07:49:33;100593.53;;;35.20;31.40
61524;BME280;47393;38.758;-9.164;2022-07-03T07:51:34;100586.09;;;36.18;29.64
61524;BME280;47393;38.758;-9.164;2022-07-03T07:53:34;100592.94;;;34.07;32.93
61524;BME280;47393;38.758;-9.164;2022-07-03T07:55:35;100569.00;;;33.89;33.19
61524;BME280;47393;38.758;-9.164;2022-07-03T07:57:40;100605.75;;;34.07;33.31
61524;BME280;47393;38.758;-9.164;2022-07-03T07:59:41;100565.72;;;33.92;32.04
61524;BME280;47393;38.758;-9.164;2022-07-03T08:01:42;100607.28;;;32.16;36.47
61524;BME280;47393;38.758;-9.164;2022-07-03T08:04:02;100619.28;;;32.20;36.07
61524;BME280;47393;38.758;-9.164;2022-07-03T08:06:23;100603.25;;;32.87;35.12
61524;BME280;47393;38.758;-9.164;2022-07-03T08:08:24;100614.38;;;32.17;36.19
61524;BME280;47393;38.758;-9.164;2022-07-03T08:10:25;100624.56;;;33.21;34.40
61524;BME280;47393;38.758;-9.164;2022-07-03T08:12:26;100604.72;;;33.36;34.02
61524;BME280;47393;38.758;-9.164;2022-07-03T08:14:28;100599.84;;;32.54;35.33
61524;BME280;47393;38.758;-9.164;2022-07-03T08:16:29;100631.25;;;31.81;36.64
61524;BME280;47393;38.758;-9.164;2022-07-03T08:18:30;100621.88;;;30.85;38.25
61524;BME280;47393;38.758;-9.164;2022-07-03T08:20:31;100636.13;;;30.53;39.65
61524;BME280;47393;38.758;-9.164;2022-07-03T08:22:32;100640.91;;;30.46;39.47
61524;BME280;47393;38.758;-9.164;2022-07-03T08:24:33;100644.50;;;32.58;35.44
61524;BME280;47393;38.758;-9.164;2022-07-03T08:26:34;100639.06;;;33.98;32.89
61524;BME280;47393;38.758;-9.164;2022-07-03T08:28:35;100644.81;;;31.49;37.30
61524;BME280;47393;38.758;-9.164;2022-07-03T08:30:36;100636.75;;;30.60;39.21
61524;BME280;47393;38.758;-9.164;2022-07-03T08:32:36;100632.28;;;27.59;46.51
61524;BME280;47393;38.758;-9.164;2022-07-03T08:34:37;100611.78;;;26.79;48.41
61524;BME280;47393;38.758;-9.164;2022-07-03T08:36:40;100629.88;;;27.93;46.14
61524;BME280;47393;38.758;-9.164;2022-07-03T08:38:41;100616.50;;;27.98;46.67
61524;BME280;47393;38.758;-9.164;2022-07-03T08:40:43;100658.09;;;28.56;45.30
61524;BME280;47393;38.758;-9.164;2022-07-03T08:42:53;100656.94;;;28.05;46.20
61524;BME280;47393;38.758;-9.164;2022-07-03T08:44:54;100650.31;;;27.16;48.48
61524;BME280;47393;38.758;-9.164;2022-07-03T08:46:58;100648.69;;;28.00;45.60
61524;BME280;47393;38.758;-9.164;2022-07-03T08:49:00;100651.06;;;28.31;46.16
61524;BME280;47393;38.758;-9.164;2022-07-03T08:51:02;100647.00;;;29.51;42.56
61524;BME280;47393;38.758;-9.164;2022-07-03T08:53:03;100645.22;;;28.99;44.02
61524;BME280;47393;38.758;-9.164;2022-07-03T08:55:06;100654.00;;;28.42;44.25
61524;BME280;47393;38.758;-9.164;2022-07-03T08:57:07;100650.94;;;28.38;44.95
61524;BME280;47393;38.758;-9.164;2022-07-03T08:59:08;100651.78;;;29.78;41.56
61524;BME280;47393;38.758;-9.164;2022-07-03T09:01:10;100651.22;;;29.93;41.15
61524;BME280;47393;38.758;-9.164;2022-07-03T09:03:15;100654.66;;;30.83;39.95
61524;BME280;47393;38.758;-9.164;2022-07-03T09:05:20;100627.22;;;30.01;40.11
61524;BME280;47393;38.758;-9.164;2022-07-03T09:07:24;100632.38;;;29.35;41.45
61524;BME280;47393;38.758;-9.164;2022-07-03T09:09:33;100665.47;;;29.54;42.09
61524;BME280;47393;38.758;-9.164;2022-07-03T09:11:38;100656.38;;;30.28;40.71
61524;BME280;47393;38.758;-9.164;2022-07-03T09:13:43;100674.81;;;28.29;44.91
61524;BME280;47393;38.758;-9.164;2022-07-03T09:15:44;100687.44;;;29.12;42.90
61524;BME280;47393;38.758;-9.164;2022-07-03T09:19:59;100679.19;;;29.47;43.21
61524;BME280;47393;38.758;-9.164;2022-07-03T09:22:00;100661.31;;;28.41;44.15
61524;BME280;47393;38.758;-9.164;2022-07-03T09:24:04;100669.16;;;29.48;41.11
61524;BME280;47393;38.758;-9.164;2022-07-03T09:26:06;100680.69;;;29.26;42.77
61524;BME280;47393;38.758;-9.164;2022-07-03T09:28:12;100674.91;;;28.82;42.83
61524;BME280;47393;38.758;-9.164;2022-07-03T09:30:13;100678.38;;;29.64;41.43
61524;BME280;47393;38.758;-9.164;2022-07-03T09:32:13;100702.75;;;26.71;48.59
61524;BME280;47393;38.758;-9.164;2022-07-03T09:34:14;100673.44;;;26.75;48.18
61524;BME280;47393;38.758;-9.164;2022-07-03T09:38:45;100680.22;;;28.77;43.97
61524;BME280;47393;38.758;-9.164;2022-07-03T09:40:53;100670.38;;;28.99;42.57
61524;BME280;47393;38.758;-9.164;2022-07-03T09:43:04;100688.84;;;27.23;46.94
61524;BME280;47393;38.758;-9.164;2022-07-03T09:45:05;100685.63;;;28.53;43.72
61524;BME280;47393;38.758;-9.164;2022-07-03T09:47:11;100706.47;;;30.03;41.28
61524;BME280;47393;38.758;-9.164;2022-07-03T09:49:12;100711.38;;;28.44;44.07
61524;BME280;47393;38.758;-9.164;2022-07-03T09:51:23;100715.13;;;28.19;45.16
61524;BME280;47393;38.758;-9.164;2022-07-03T09:53:25;100680.28;;;27.87;45.52
61524;BME280;47393;38.758;-9.164;2022-07-03T09:55:25;100700.78;;;28.42;44.27
61524;BME280;47393;38.758;-9.164;2022-07-03T09:57:28;100703.41;;;27.83;45.75
61524;BME280;47393;38.758;-9.164;2022-07-03T09:59:29;100690.38;;;27.92;45.27
61524;BME280;47393;38.758;-9.164;2022-07-03T10:01:31;100691.75;;;28.13;44.41
61524;BME280;47393;38.758;-9.164;2022-07-03T10:03:32;100709.41;;;28.27;44.77
61524;BME280;47393;38.758;-9.164;2022-07-03T10:05:37;100725.84;;;28.26;44.81
61524;BME280;47393;38.758;-9.164;2022-07-03T10:08:01;100720.44;;;28.85;43.89
61524;BME280;47393;38.758;-9.164;2022-07-03T10:10:03;100670.75;;;26.31;48.84
61524;BME280;47393;38.758;-9.164;2022-07-03T10:12:07;100696.41;;;27.33;47.00
61524;BME280;47393;38.758;-9.164;2022-07-03T10:14:17;100718.09;;;28.18;45.26
61524;BME280;47393;38.758;-9.164;2022-07-03T10:16:20;100678.97;;;27.17;47.12
61524;BME280;47393;38.758;-9.164;2022-07-03T10:18:29;100711.72;;;27.21;47.32
61524;BME280;47393;38.758;-9.164;2022-07-03T10:20:54;100687.91;;;27.78;45.87
61524;BME280;47393;38.758;-9.164;2022-07-03T10:22:55;100692.22;;;28.10;44.34
61524;BME280;47393;38.758;-9.164;2022-07-03T10:24:58;100698.91;;;28.19;44.93
61524;BME280;47393;38.758;-9.164;2022-07-03T10:27:00;100697.03;;;28.08;45.37
61524;BME280;47393;38.758;-9.164;2022-07-03T10:29:02;100703.75;;;28.17;44.99
61524;BME280;47393;38.758;-9.164;2022-07-03T10:31:03;100694.28;;;27.54;45.72
61524;BME280;47393;38.758;-9.164;2022-07-03T10:33:04;100678.66;;;27.44;46.88
61524;BME280;47393;38.758;-9.164;2022-07-03T10:35:06;100700.47;;;28.39;45.24
61524;BME280;47393;38.758;-9.164;2022-07-03T10:37:10;100661.47;;;27.80;45.20
61524;BME280;47393;38.758;-9.164;2022-07-03T10:39:28;100657.06;;;28.69;43.21
61524;BME280;47393;38.758;-9.164;2022-07-03T10:41:35;100703.69;;;27.33;46.28
61524;BME280;47393;38.758;-9.164;2022-07-03T10:43:56;100708.81;;;27.83;45.57
61524;BME280;47393;38.758;-9.164;2022-07-03T10:46:25;100703.66;;;29.12;42.79
61524;BME280;47393;38.758;-9.164;2022-07-03T10:49:00;100679.63;;;28.51;43.57
61524;BME280;47393;38.758;-9.164;2022-07-03T10:51:12;100700.47;;;28.62;43.53
61524;BME280;47393;38.758;-9.164;2022-07-03T10:53:23;100703.16;;;29.27;41.97
61524;BME280;47393;38.758;-9.164;2022-07-03T10:55:24;100684.81;;;27.75;45.63
61524;BME280;47393;38.758;-9.164;2022-07-03T10:57:25;100663.94;;;27.82;44.54
61524;BME280;47393;38.758;-9.164;2022-07-03T11:01:32;100677.75;;;28.52;42.91
61524;BME280;47393;38.758;-9.164;2022-07-03T11:05:53;100699.38;;;28.40;43.69
61524;BME280;47393;38.758;-9.164;2022-07-03T11:12:10;100706.53;;;29.63;40.98
61524;BME280;47393;38.758;-9.164;2022-07-03T11:14:18;100718.25;;;29.23;41.69
61524;BME280;47393;38.758;-9.164;2022-07-03T11:16:22;100712.59;;;30.50;38.91
61524;BME280;47393;38.758;-9.164;2022-07-03T11:18:28;100714.50;;;30.32;40.54